sensor_id;sensor_type;location;lat;lon;timestamp;P1;durP1;ratioP1;P2;durP2;ratioP2
1460;SDS011;724;49.910;12.530;2024-03-23T00:53:32;14.90;;;14.10;;
1460;SDS011;724;49.910;12.530;2024-03-23T00:55:58;14.80;;;14.00;;
1460;SDS011;724;49.910;12.530;2024-03-23T00:58:25;14.90;;;14.10;;
1460;SDS011;724;49.910;12.530;2024-03-23T01:00:51;15.10;;;14.30;;
1460;SDS011;724;49.910;12.530;2024-03-23T01:03:17;14.95;;;14.15;;
1460;SDS011;724;49.910;12.530;2024-03-23T01:05:43;15.00;;;14.20;;
1460;SDS011;724;49.910;12.530;2024-03-23T01:08:11;15.00;;;14.20;;
1460;SDS011;724;49.910;12.530;2024-03-23T01:10:37;15.00;;;14.20;;
1460;SDS011;724;49.910;12.530;2024-03-23T01:13:04;14.80;;;14.00;;
1460;SDS011;724;49.910;12.530;2024-03-23T01:15:29;14.67;;;13.93;;
1460;SDS011;724;49.910;12.530;2024-03-23T01:17:56;14.80;;;14.00;;
1460;SDS011;724;49.910;12.530;2024-03-23T01:20:22;14.83;;;14.03;;
1460;SDS011;724;49.910;12.530;2024-03-23T01:22:49;14.93;;;14.13;;
1460;SDS011;724;49.910;12.530;2024-03-23T01:25:16;14.90;;;14.10;;
1460;SDS011;724;49.910;12.530;2024-03-23T01:27:42;14.60;;;13.90;;
1460;SDS011;724;49.910;12.530;2024-03-23T01:30:08;14.30;;;13.60;;
1460;SDS011;724;49.910;12.530;2024-03-23T01:32:35;14.50;;;13.80;;
1460;SDS011;724;49.910;12.530;2024-03-23T01:35:01;14.80;;;14.00;;
1460;SDS011;724;49.910;12.530;2024-03-23T01:37:29;13.90;;;13.20;;
1460;SDS011;724;49.910;12.530;2024-03-23T01:39:54;14.20;;;13.50;;
1460;SDS011;724;49.910;12.530;2024-03-23T01:42:22;14.20;;;13.50;;
1460;SDS011;724;49.910;12.530;2024-03-23T01:44:48;14.40;;;13.70;;
1460;SDS011;724;49.910;12.530;2024-03-23T01:47:15;14.40;;;13.70;;
1460;SDS011;724;49.910;12.530;2024-03-23T01:49:41;14.40;;;13.70;;
1460;SDS011;724;49.910;12.530;2024-03-23T01:52:08;14.50;;;13.80;;
1460;SDS011;724;49.910;12.530;2024-03-23T01:54:35;14.40;;;13.70;;
1460;SDS011;724;49.910;12.530;2024-03-23T01:57:01;14.30;;;13.60;;
1460;SDS011;724;49.910;12.530;2024-03-23T01:59:29;14.53;;;13.83;;
1460;SDS011;724;49.910;12.530;2024-03-23T02:01:55;14.30;;;13.60;;
1460;SDS011;724;49.910;12.530;2024-03-23T02:04:21;14.53;;;13.83;;
1460;SDS011;724;49.910;12.530;2024-03-23T02:06:48;14.10;;;13.40;;
1460;SDS011;724;49.910;12.530;2024-03-23T02:09:14;13.93;;;13.23;;
1460;SDS011;724;49.910;12.530;2024-03-23T02:11:40;14.60;;;13.90;;
1460;SDS011;724;49.910;12.530;2024-03-23T02:14:06;14.40;;;13.70;;
1460;SDS011;724;49.910;12.530;2024-03-23T02:16:34;14.60;;;13.90;;
1460;SDS011;724;49.910;12.530;2024-03-23T02:19:00;14.75;;;13.98;;
1460;SDS011;724;49.910;12.530;2024-03-23T02:21:27;14.50;;;13.80;;
1460;SDS011;724;49.910;12.530;2024-03-23T02:23:58;14.60;;;13.90;;
1460;SDS011;724;49.910;12.530;2024-03-23T02:26:25;14.80;;;14.00;;
1460;SDS011;724;49.910;12.530;2024-03-23T02:28:50;14.33;;;13.63;;
1460;SDS011;724;49.910;12.530;2024-03-23T02:31:17;14.30;;;13.60;;
1460;SDS011;724;49.910;12.530;2024-03-23T02:33:43;14.33;;;13.63;;
1460;SDS011;724;49.910;12.530;2024-03-23T02:36:09;14.88;;;14.07;;
1460;SDS011;724;49.910;12.530;2024-03-23T02:38:35;14.00;;;13.30;;
1460;SDS011;724;49.910;12.530;2024-03-23T02:41:04;14.15;;;13.45;;
1460;SDS011;724;49.910;12.530;2024-03-23T02:43:29;14.90;;;14.10;;
1460;SDS011;724;49.910;12.530;2024-03-23T02:45:56;14.90;;;14.10;;
1460;SDS011;724;49.910;12.530;2024-03-23T02:48:22;14.57;;;13.88;;
1460;SDS011;724;49.910;12.530;2024-03-23T02:50:49;14.50;;;13.80;;
1460;SDS011;724;49.910;12.530;2024-03-23T02:53:15;15.10;;;14.30;;
1460;SDS011;724;49.910;12.530;2024-03-23T02:55:42;15.20;;;14.40;;
1460;SDS011;724;49.910;12.530;2024-03-23T02:58:09;14.90;;;14.10;;
1460;SDS011;724;49.910;12.530;2024-03-23T03:00:36;15.00;;;14.20;;
1460;SDS011;724;49.910;12.530;2024-03-23T03:03:02;14.90;;;14.10;;
1460;SDS011;724;49.910;12.530;2024-03-23T03:05:29;14.90;;;14.10;;
1460;SDS011;724;49.910;12.530;2024-03-23T03:07:55;15.13;;;14.33;;
1460;SDS011;724;49.910;12.530;2024-03-23T03:10:21;15.20;;;14.40;;
1460;SDS011;724;49.910;12.530;2024-03-23T03:12:47;15.10;;;14.30;;
1460;SDS011;724;49.910;12.530;2024-03-23T03:15:15;15.27;;;14.48;;
1460;SDS011;724;49.910;12.530;2024-03-23T03:17:41;14.40;;;13.70;;
1460;SDS011;724;49.910;12.530;2024-03-23T03:20:08;14.35;;;13.65;;
1460;SDS011;724;49.910;12.530;2024-03-23T03:22:38;14.15;;;13.45;;
1460;SDS011;724;49.910;12.530;2024-03-23T03:25:05;14.25;;;13.55;;
1460;SDS011;724;49.910;12.530;2024-03-23T03:27:32;14.60;;;13.90;;
1460;SDS011;724;49.910;12.530;2024-03-23T03:29:59;14.90;;;14.10;;
1460;SDS011;724;49.910;12.530;2024-03-23T03:32:28;15.02;;;14.23;;
1460;SDS011;724;49.910;12.530;2024-03-23T03:34:55;15.30;;;14.50;;
1460;SDS011;724;49.910;12.530;2024-03-23T03:37:20;15.00;;;14.20;;
1460;SDS011;724;49.910;12.530;2024-03-23T03:39:47;15.00;;;14.20;;
1460;SDS011;724;49.910;12.530;2024-03-23T03:42:14;15.20;;;14.40;;
1460;SDS011;724;49.910;12.530;2024-03-23T03:44:41;14.80;;;14.00;;
1460;SDS011;724;49.910;12.530;2024-03-23T03:47:07;14.27;;;13.57;;
1460;SDS011;724;49.910;12.530;2024-03-23T03:49:35;14.82;;;14.02;;
1460;SDS011;724;49.910;12.530;2024-03-23T03:52:00;15.23;;;14.43;;
1460;SDS011;724;49.910;12.530;2024-03-23T03:54:27;14.70;;;13.95;;
1460;SDS011;724;49.910;12.530;2024-03-23T03:56:53;15.30;;;14.50;;
1460;SDS011;724;49.910;12.530;2024-03-23T03:59:20;14.70;;;13.95;;
1460;SDS011;724;49.910;12.530;2024-03-23T04:01:45;15.60;;;14.80;;
1460;SDS011;724;49.910;12.530;2024-03-23T04:04:12;15.40;;;14.60;;
1460;SDS011;724;49.910;12.530;2024-03-23T04:06:40;15.00;;;14.20;;
1460;SDS011;724;49.910;12.530;2024-03-23T04:09:07;15.38;;;14.57;;
1460;SDS011;724;49.910;12.530;2024-03-23T04:11:32;14.97;;;14.17;;
1460;SDS011;724;49.910;12.530;2024-03-23T04:13:59;15.63;;;14.82;;
1460;SDS011;724;49.910;12.530;2024-03-23T04:16:26;15.07;;;14.27;;
1460;SDS011;724;49.910;12.530;2024-03-23T04:18:53;15.70;;;14.90;;
1460;SDS011;724;49.910;12.530;2024-03-23T04:21:19;15.83;;;15.03;;
1460;SDS011;724;49.910;12.530;2024-03-23T04:23:47;15.55;;;14.75;;
1460;SDS011;724;49.910;12.530;2024-03-23T04:26:13;15.40;;;14.60;;
1460;SDS011;724;49.910;12.530;2024-03-23T04:28:41;15.50;;;14.70;;
1460;SDS011;724;49.910;12.530;2024-03-23T04:31:07;15.38;;;14.57;;
1460;SDS011;724;49.910;12.530;2024-03-23T04:33:34;15.80;;;15.00;;
1460;SDS011;724;49.910;12.530;2024-03-23T04:36:00;15.80;;;15.00;;
1460;SDS011;724;49.910;12.530;2024-03-23T04:38:27;14.43;;;13.73;;
1460;SDS011;724;49.910;12.530;2024-03-23T04:40:56;15.60;;;14.80;;
1460;SDS011;724;49.910;12.530;2024-03-23T04:43:23;15.60;;;14.80;;
1460;SDS011;724;49.910;12.530;2024-03-23T04:45:49;15.55;;;14.75;;
1460;SDS011;724;49.910;12.530;2024-03-23T04:48:19;15.65;;;14.85;;
1460;SDS011;724;49.910;12.530;2024-03-23T04:50:46;15.02;;;14.23;;
1460;SDS011;724;49.910;12.530;2024-03-23T04:53:12;15.13;;;14.33;;
1460;SDS011;724;49.910;12.530;2024-03-23T04:55:38;15.60;;;14.80;;
1460;SDS011;724;49.910;12.530;2024-03-23T04:58:06;14.90;;;14.10;;
1460;SDS011;724;49.910;12.530;2024-03-23T05:00:32;14.93;;;14.13;;
1460;SDS011;724;49.910;12.530;2024-03-23T05:02:59;15.18;;;14.38;;
1460;SDS011;724;49.910;12.530;2024-03-23T05:05:25;15.30;;;14.50;;
1460;SDS011;724;49.910;12.530;2024-03-23T05:07:51;15.15;;;14.35;;
1460;SDS011;724;49.910;12.530;2024-03-23T05:10:17;15.10;;;14.30;;
1460;SDS011;724;49.910;12.530;2024-03-23T05:12:44;14.90;;;14.10;;
1460;SDS011;724;49.910;12.530;2024-03-23T05:15:12;15.35;;;14.55;;
1460;SDS011;724;49.910;12.530;2024-03-23T05:17:38;15.40;;;14.60;;
1460;SDS011;724;49.910;12.530;2024-03-23T05:20:04;15.50;;;14.70;;
1460;SDS011;724;49.910;12.530;2024-03-23T05:22:34;15.30;;;14.50;;
1460;SDS011;724;49.910;12.530;2024-03-23T05:25:00;15.50;;;14.70;;
1460;SDS011;724;49.910;12.530;2024-03-23T05:27:29;15.10;;;14.30;;
1460;SDS011;724;49.910;12.530;2024-03-23T05:29:56;15.10;;;14.30;;
1460;SDS011;724;49.910;12.530;2024-03-23T05:32:24;15.30;;;14.50;;
1460;SDS011;724;49.910;12.530;2024-03-23T05:34:50;15.30;;;14.50;;
1460;SDS011;724;49.910;12.530;2024-03-23T05:37:20;15.10;;;14.30;;
1460;SDS011;724;49.910;12.530;2024-03-23T05:39:46;15.07;;;14.27;;
1460;SDS011;724;49.910;12.530;2024-03-23T05:42:14;15.40;;;14.60;;
1460;SDS011;724;49.910;12.530;2024-03-23T05:44:40;15.20;;;14.40;;
1460;SDS011;724;49.910;12.530;2024-03-23T05:47:09;15.50;;;14.70;;
1460;SDS011;724;49.910;12.530;2024-03-23T05:49:37;15.65;;;14.85;;
1460;SDS011;724;49.910;12.530;2024-03-23T05:52:04;15.30;;;14.50;;
1460;SDS011;724;49.910;12.530;2024-03-23T05:54:30;15.30;;;14.50;;
1460;SDS011;724;49.910;12.530;2024-03-23T05:56:56;15.15;;;14.35;;
1460;SDS011;724;49.910;12.530;2024-03-23T05:59:22;15.33;;;14.53;;
1460;SDS011;724;49.910;12.530;2024-03-23T06:01:49;15.27;;;14.48;;
1460;SDS011;724;49.910;12.530;2024-03-23T06:04:14;15.13;;;14.33;;
1460;SDS011;724;49.910;12.530;2024-03-23T06:06:43;15.13;;;14.32;;
1460;SDS011;724;49.910;12.530;2024-03-23T06:09:08;15.50;;;14.70;;
1460;SDS011;724;49.910;12.530;2024-03-23T06:11:35;15.40;;;14.60;;
1460;SDS011;724;49.910;12.530;2024-03-23T06:14:01;15.40;;;14.60;;
1460;SDS011;724;49.910;12.530;2024-03-23T06:16:27;15.00;;;14.20;;
1460;SDS011;724;49.910;12.530;2024-03-23T06:18:53;15.40;;;14.60;;
1460;SDS011;724;49.910;12.530;2024-03-23T06:21:21;16.10;;;15.30;;
1460;SDS011;724;49.910;12.530;2024-03-23T06:23:51;15.60;;;14.80;;
1460;SDS011;724;49.910;12.530;2024-03-23T06:26:19;15.60;;;14.80;;
1460;SDS011;724;49.910;12.530;2024-03-23T06:28:45;15.40;;;14.60;;
1460;SDS011;724;49.910;12.530;2024-03-23T06:31:12;15.55;;;14.75;;
1460;SDS011;724;49.910;12.530;2024-03-23T06:33:38;15.60;;;14.80;;
1460;SDS011;724;49.910;12.530;2024-03-23T06:36:06;15.98;;;15.18;;
1460;SDS011;724;49.910;12.530;2024-03-23T06:38:34;15.53;;;14.73;;
1460;SDS011;724;49.910;12.530;2024-03-23T06:41:03;16.27;;;15.47;;
1460;SDS011;724;49.910;12.530;2024-03-23T06:43:29;15.70;;;14.90;;
1460;SDS011;724;49.910;12.530;2024-03-23T06:45:56;15.30;;;14.50;;
1460;SDS011;724;49.910;12.530;2024-03-23T06:48:22;15.90;;;15.10;;
1460;SDS011;724;49.910;12.530;2024-03-23T06:50:49;15.30;;;14.50;;
1460;SDS011;724;49.910;12.530;2024-03-23T06:53:15;14.90;;;14.10;;
1460;SDS011;724;49.910;12.530;2024-03-23T06:55:42;15.15;;;14.35;;
1460;SDS011;724;49.910;12.530;2024-03-23T06:58:17;15.20;;;14.40;;
1460;SDS011;724;49.910;12.530;2024-03-23T07:00:44;15.10;;;14.30;;
1460;SDS011;724;49.910;12.530;2024-03-23T07:03:10;15.70;;;14.90;;
1460;SDS011;724;49.910;12.530;2024-03-23T07:05:36;15.60;;;14.80;;
1460;SDS011;724;49.910;12.530;2024-03-23T07:08:02;15.00;;;14.20;;
1460;SDS011;724;49.910;12.530;2024-03-23T07:10:29;15.20;;;14.40;;
1460;SDS011;724;49.910;12.530;2024-03-23T07:12:55;15.30;;;14.50;;
1460;SDS011;724;49.910;12.530;2024-03-23T07:15:23;15.80;;;15.00;;
1460;SDS011;724;49.910;12.530;2024-03-23T07:17:51;15.60;;;14.80;;
1460;SDS011;724;49.910;12.530;2024-03-23T07:20:18;15.75;;;14.95;;
1460;SDS011;724;49.910;12.530;2024-03-23T07:22:45;15.50;;;14.70;;
1460;SDS011;724;49.910;12.530;2024-03-23T07:25:12;15.20;;;14.40;;
1460;SDS011;724;49.910;12.530;2024-03-23T07:27:38;16.07;;;15.27;;
1460;SDS011;724;49.910;12.530;2024-03-23T07:30:05;15.80;;;15.00;;
1460;SDS011;724;49.910;12.530;2024-03-23T07:32:34;15.80;;;15.00;;
1460;SDS011;724;49.910;12.530;2024-03-23T07:35:00;16.08;;;15.27;;
1460;SDS011;724;49.910;12.530;2024-03-23T07:37:26;15.90;;;15.10;;
1460;SDS011;724;49.910;12.530;2024-03-23T07:39:53;15.90;;;15.10;;
1460;SDS011;724;49.910;12.530;2024-03-23T07:42:19;15.80;;;15.00;;
1460;SDS011;724;49.910;12.530;2024-03-23T07:44:46;16.25;;;15.45;;
1460;SDS011;724;49.910;12.530;2024-03-23T07:47:12;16.30;;;15.50;;
1460;SDS011;724;49.910;12.530;2024-03-23T07:49:40;15.70;;;14.90;;
1460;SDS011;724;49.910;12.530;2024-03-23T07:52:06;15.70;;;14.90;;
1460;SDS011;724;49.910;12.530;2024-03-23T07:54:33;16.10;;;15.30;;
1460;SDS011;724;49.910;12.530;2024-03-23T07:56:59;15.97;;;15.17;;
1460;SDS011;724;49.910;12.530;2024-03-23T07:59:25;16.02;;;15.23;;
1460;SDS011;724;49.910;12.530;2024-03-23T08:01:51;15.90;;;15.10;;
1460;SDS011;724;49.910;12.530;2024-03-23T08:04:18;15.80;;;15.00;;
1460;SDS011;724;49.910;12.530;2024-03-23T08:06:45;15.80;;;15.00;;
1460;SDS011;724;49.910;12.530;2024-03-23T08:09:12;15.80;;;15.00;;
1460;SDS011;724;49.910;12.530;2024-03-23T08:11:38;16.20;;;15.40;;
1460;SDS011;724;49.910;12.530;2024-03-23T08:14:05;15.90;;;15.10;;
1460;SDS011;724;49.910;12.530;2024-03-23T08:16:31;16.00;;;15.20;;
1460;SDS011;724;49.910;12.530;2024-03-23T08:18:59;15.80;;;15.00;;
1460;SDS011;724;49.910;12.530;2024-03-23T08:21:25;15.40;;;14.60;;
1460;SDS011;724;49.910;12.530;2024-03-23T08:23:53;15.57;;;14.77;;
1460;SDS011;724;49.910;12.530;2024-03-23T08:26:19;15.60;;;14.80;;
1460;SDS011;724;49.910;12.530;2024-03-23T08:28:45;15.30;;;14.50;;
1460;SDS011;724;49.910;12.530;2024-03-23T08:31:12;14.50;;;13.80;;
1460;SDS011;724;49.910;12.530;2024-03-23T08:33:39;14.80;;;14.00;;
1460;SDS011;724;49.910;12.530;2024-03-23T08:36:08;15.00;;;14.20;;
1460;SDS011;724;49.910;12.530;2024-03-23T08:38:37;14.80;;;14.00;;
1460;SDS011;724;49.910;12.530;2024-03-23T08:41:05;14.30;;;13.60;;
1460;SDS011;724;49.910;12.530;2024-03-23T08:43:33;14.20;;;13.50;;
1460;SDS011;724;49.910;12.530;2024-03-23T08:46:03;14.30;;;13.60;;
1460;SDS011;724;49.910;12.530;2024-03-23T08:48:31;14.10;;;13.40;;
1460;SDS011;724;49.910;12.530;2024-03-23T08:50:59;14.10;;;13.40;;
1460;SDS011;724;49.910;12.530;2024-03-23T08:53:27;14.15;;;13.45;;
1460;SDS011;724;49.910;12.530;2024-03-23T08:55:53;13.70;;;13.00;;
1460;SDS011;724;49.910;12.530;2024-03-23T08:58:22;13.10;;;12.40;;
1460;SDS011;724;49.910;12.530;2024-03-23T09:00:49;14.05;;;13.35;;
1460;SDS011;724;49.910;12.530;2024-03-23T09:03:16;13.77;;;13.07;;
1460;SDS011;724;49.910;12.530;2024-03-23T09:05:42;14.10;;;13.40;;
1460;SDS011;724;49.910;12.530;2024-03-23T09:08:09;14.60;;;13.90;;
1460;SDS011;724;49.910;12.530;2024-03-23T09:10:37;15.10;;;14.30;;
1460;SDS011;724;49.910;12.530;2024-03-23T09:13:05;14.60;;;13.90;;
1460;SDS011;724;49.910;12.530;2024-03-23T09:15:32;14.00;;;13.30;;
1460;SDS011;724;49.910;12.530;2024-03-23T09:18:00;14.20;;;13.50;;
1460;SDS011;724;49.910;12.530;2024-03-23T09:20:26;13.90;;;13.20;;
1460;SDS011;724;49.910;12.530;2024-03-23T09:22:52;13.90;;;13.20;;
1460;SDS011;724;49.910;12.530;2024-03-23T09:25:18;13.70;;;13.00;;
1460;SDS011;724;49.910;12.530;2024-03-23T09:27:45;14.10;;;13.40;;
1460;SDS011;724;49.910;12.530;2024-03-23T09:30:12;13.95;;;13.25;;
1460;SDS011;724;49.910;12.530;2024-03-23T09:32:43;13.60;;;12.90;;
1460;SDS011;724;49.910;12.530;2024-03-23T09:35:09;13.63;;;12.93;;
1460;SDS011;724;49.910;12.530;2024-03-23T09:37:36;13.90;;;13.20;;
1460;SDS011;724;49.910;12.530;2024-03-23T09:40:04;14.60;;;13.90;;
1460;SDS011;724;49.910;12.530;2024-03-23T09:42:32;15.10;;;14.30;;
1460;SDS011;724;49.910;12.530;2024-03-23T09:44:59;14.60;;;13.90;;
1460;SDS011;724;49.910;12.530;2024-03-23T09:47:26;14.00;;;13.30;;
1460;SDS011;724;49.910;12.530;2024-03-23T09:49:54;14.90;;;14.10;;
1460;SDS011;724;49.910;12.530;2024-03-23T09:52:21;15.07;;;14.27;;
1460;SDS011;724;49.910;12.530;2024-03-23T09:54:46;14.90;;;14.10;;
1460;SDS011;724;49.910;12.530;2024-03-23T09:57:13;14.50;;;13.80;;
1460;SDS011;724;49.910;12.530;2024-03-23T09:59:39;15.40;;;14.60;;
1460;SDS011;724;49.910;12.530;2024-03-23T10:02:06;14.90;;;14.10;;
1460;SDS011;724;49.910;12.530;2024-03-23T10:04:38;15.25;;;14.45;;
1460;SDS011;724;49.910;12.530;2024-03-23T10:07:14;15.10;;;14.30;;
1460;SDS011;724;49.910;12.530;2024-03-23T10:09:42;14.95;;;14.15;;
1460;SDS011;724;49.910;12.530;2024-03-23T10:12:09;15.18;;;14.38;;
1460;SDS011;724;49.910;12.530;2024-03-23T10:14:35;14.60;;;13.90;;
1460;SDS011;724;49.910;12.530;2024-03-23T10:17:11;14.80;;;14.00;;
1460;SDS011;724;49.910;12.530;2024-03-23T10:19:39;15.13;;;14.32;;
1460;SDS011;724;49.910;12.530;2024-03-23T10:22:06;15.30;;;14.50;;
1460;SDS011;724;49.910;12.530;2024-03-23T10:24:35;14.50;;;13.80;;
1460;SDS011;724;49.910;12.530;2024-03-23T10:27:01;15.10;;;14.30;;
1460;SDS011;724;49.910;12.530;2024-03-23T10:29:28;15.00;;;14.20;;
1460;SDS011;724;49.910;12.530;2024-03-23T10:31:53;14.67;;;13.93;;
1460;SDS011;724;49.910;12.530;2024-03-23T10:34:33;14.38;;;13.68;;
1460;SDS011;724;49.910;12.530;2024-03-23T10:36:59;14.43;;;13.73;;
1460;SDS011;724;49.910;12.530;2024-03-23T10:39:28;13.95;;;13.25;;
1460;SDS011;724;49.910;12.530;2024-03-23T10:42:00;14.10;;;13.40;;
1460;SDS011;724;49.910;12.530;2024-03-23T10:44:29;14.10;;;13.40;;
1460;SDS011;724;49.910;12.530;2024-03-23T10:46:56;14.02;;;13.32;;
1460;SDS011;724;49.910;12.530;2024-03-23T10:49:26;13.75;;;13.05;;
1460;SDS011;724;49.910;12.530;2024-03-23T10:51:54;13.80;;;13.10;;
1460;SDS011;724;49.910;12.530;2024-03-23T10:54:22;13.90;;;13.20;;
1460;SDS011;724;49.910;12.530;2024-03-23T10:56:50;14.10;;;13.40;;
1460;SDS011;724;49.910;12.530;2024-03-23T10:59:23;14.20;;;13.50;;
1460;SDS011;724;49.910;12.530;2024-03-23T11:01:56;13.60;;;12.90;;
1460;SDS011;724;49.910;12.530;2024-03-23T11:04:29;13.90;;;13.20;;
1460;SDS011;724;49.910;12.530;2024-03-23T11:06:56;13.70;;;13.00;;
1460;SDS011;724;49.910;12.530;2024-03-23T11:09:38;14.00;;;13.30;;
1460;SDS011;724;49.910;12.530;2024-03-23T11:12:13;14.15;;;13.45;;
1460;SDS011;724;49.910;12.530;2024-03-23T11:14:52;14.00;;;13.30;;
1460;SDS011;724;49.910;12.530;2024-03-23T11:17:20;14.50;;;13.80;;
1460;SDS011;724;49.910;12.530;2024-03-23T11:19:52;14.40;;;13.70;;
1460;SDS011;724;49.910;12.530;2024-03-23T11:25:12;15.10;;;14.30;;
1460;SDS011;724;49.910;12.530;2024-03-23T11:27:41;14.90;;;14.10;;
1460;SDS011;724;49.910;12.530;2024-03-23T11:30:11;14.60;;;13.90;;
1460;SDS011;724;49.910;12.530;2024-03-23T11:32:37;14.00;;;13.30;;
1460;SDS011;724;49.910;12.530;2024-03-23T11:35:05;15.40;;;14.60;;
1460;SDS011;724;49.910;12.530;2024-03-23T11:37:35;14.80;;;14.00;;
1460;SDS011;724;49.910;12.530;2024-03-23T11:40:16;14.88;;;14.07;;
1460;SDS011;724;49.910;12.530;2024-03-23T11:42:54;14.55;;;13.85;;
1460;SDS011;724;49.910;12.530;2024-03-23T11:45:23;14.20;;;13.50;;
1460;SDS011;724;49.910;12.530;2024-03-23T11:48:00;14.13;;;13.43;;
1460;SDS011;724;49.910;12.530;2024-03-23T11:50:28;14.90;;;14.10;;
1460;SDS011;724;49.910;12.530;2024-03-23T11:53:05;14.90;;;14.10;;
1460;SDS011;724;49.910;12.530;2024-03-23T11:55:41;14.40;;;13.70;;
1460;SDS011;724;49.910;12.530;2024-03-23T11:58:07;14.45;;;13.75;;
1460;SDS011;724;49.910;12.530;2024-03-23T12:00:35;14.40;;;13.70;;
1460;SDS011;724;49.910;12.530;2024-03-23T12:03:02;14.00;;;13.30;;
1460;SDS011;724;49.910;12.530;2024-03-23T12:05:29;14.52;;;13.82;;
1460;SDS011;724;49.910;12.530;2024-03-23T12:07:55;14.00;;;13.30;;
1460;SDS011;724;49.910;12.530;2024-03-23T12:10:43;13.65;;;12.95;;
1460;SDS011;724;49.910;12.530;2024-03-23T12:13:09;13.70;;;13.00;;
1460;SDS011;724;49.910;12.530;2024-03-23T12:15:37;13.60;;;12.90;;
1460;SDS011;724;49.910;12.530;2024-03-23T12:18:07;12.80;;;12.10;;
1460;SDS011;724;49.910;12.530;2024-03-23T12:20:34;13.48;;;12.77;;
1460;SDS011;724;49.910;12.530;2024-03-23T12:23:06;13.60;;;12.90;;
1460;SDS011;724;49.910;12.530;2024-03-23T12:25:34;13.50;;;12.80;;
1460;SDS011;724;49.910;12.530;2024-03-23T12:28:01;13.80;;;13.10;;
1460;SDS011;724;49.910;12.530;2024-03-23T12:30:28;13.30;;;12.60;;
1460;SDS011;724;49.910;12.530;2024-03-23T12:32:55;13.80;;;13.10;;
1460;SDS011;724;49.910;12.530;2024-03-23T12:35:23;14.10;;;13.40;;
1460;SDS011;724;49.910;12.530;2024-03-23T12:37:49;15.20;;;14.40;;
1460;SDS011;724;49.910;12.530;2024-03-23T12:40:15;14.40;;;13.70;;
1460;SDS011;724;49.910;12.530;2024-03-23T12:42:41;14.50;;;13.80;;
1460;SDS011;724;49.910;12.530;2024-03-23T12:45:08;14.10;;;13.40;;
1460;SDS011;724;49.910;12.530;2024-03-23T12:47:34;14.00;;;13.30;;
1460;SDS011;724;49.910;12.530;2024-03-23T12:50:02;13.70;;;13.00;;
1460;SDS011;724;49.910;12.530;2024-03-23T12:52:28;13.70;;;13.00;;
1460;SDS011;724;49.910;12.530;2024-03-23T12:54:55;13.43;;;12.73;;
1460;SDS011;724;49.910;12.530;2024-03-23T12:57:22;13.50;;;12.80;;
1460;SDS011;724;49.910;12.530;2024-03-23T12:59:50;13.80;;;13.10;;
1460;SDS011;724;49.910;12.530;2024-03-23T13:02:16;14.00;;;13.30;;
1460;SDS011;724;49.910;12.530;2024-03-23T13:04:45;14.10;;;13.40;;
1460;SDS011;724;49.910;12.530;2024-03-23T13:07:13;14.10;;;13.40;;
1460;SDS011;724;49.910;12.530;2024-03-23T13:09:39;14.60;;;13.90;;
1460;SDS011;724;49.910;12.530;2024-03-23T13:12:05;14.87;;;14.07;;
1460;SDS011;724;49.910;12.530;2024-03-23T13:14:33;13.70;;;13.00;;
1460;SDS011;724;49.910;12.530;2024-03-23T13:16:58;13.60;;;12.90;;
1460;SDS011;724;49.910;12.530;2024-03-23T13:19:26;13.80;;;13.10;;
1460;SDS011;724;49.910;12.530;2024-03-23T13:21:53;13.82;;;13.13;;
1460;SDS011;724;49.910;12.530;2024-03-23T13:24:22;13.55;;;12.85;;
1460;SDS011;724;49.910;12.530;2024-03-23T13:26:49;13.70;;;13.00;;
1460;SDS011;724;49.910;12.530;2024-03-23T13:29:16;13.65;;;12.95;;
1460;SDS011;724;49.910;12.530;2024-03-23T13:31:43;13.80;;;13.10;;
1460;SDS011;724;49.910;12.530;2024-03-23T13:34:10;14.65;;;13.93;;
1460;SDS011;724;49.910;12.530;2024-03-23T13:36:38;14.20;;;13.50;;
1460;SDS011;724;49.910;12.530;2024-03-23T13:39:04;14.10;;;13.40;;
1460;SDS011;724;49.910;12.530;2024-03-23T13:41:37;14.00;;;13.30;;
1460;SDS011;724;49.910;12.530;2024-03-23T13:44:03;13.50;;;12.80;;
1460;SDS011;724;49.910;12.530;2024-03-23T13:46:30;13.80;;;13.10;;
1460;SDS011;724;49.910;12.530;2024-03-23T13:48:56;14.10;;;13.40;;
1460;SDS011;724;49.910;12.530;2024-03-23T13:51:23;14.10;;;13.40;;
1460;SDS011;724;49.910;12.530;2024-03-23T13:53:50;13.80;;;13.10;;
1460;SDS011;724;49.910;12.530;2024-03-23T13:56:17;14.50;;;13.80;;
1460;SDS011;724;49.910;12.530;2024-03-23T13:58:44;14.30;;;13.60;;
1460;SDS011;724;49.910;12.530;2024-03-23T14:01:12;14.38;;;13.68;;
1460;SDS011;724;49.910;12.530;2024-03-23T14:03:38;14.13;;;13.43;;
1460;SDS011;724;49.910;12.530;2024-03-23T14:06:06;14.00;;;13.30;;
1460;SDS011;724;49.910;12.530;2024-03-23T14:08:32;14.10;;;13.40;;
1460;SDS011;724;49.910;12.530;2024-03-23T14:11:00;13.90;;;13.20;;
1460;SDS011;724;49.910;12.530;2024-03-23T14:13:27;13.75;;;13.05;;
1460;SDS011;724;49.910;12.530;2024-03-23T14:15:56;13.80;;;13.10;;
1460;SDS011;724;49.910;12.530;2024-03-23T14:18:22;14.00;;;13.30;;
1460;SDS011;724;49.910;12.530;2024-03-23T14:20:49;14.00;;;13.30;;
1460;SDS011;724;49.910;12.530;2024-03-23T14:23:16;14.10;;;13.40;;
1460;SDS011;724;49.910;12.530;2024-03-23T14:25:42;13.73;;;13.03;;
1460;SDS011;724;49.910;12.530;2024-03-23T14:28:09;13.90;;;13.20;;
1460;SDS011;724;49.910;12.530;2024-03-23T14:30:39;14.00;;;13.30;;
1460;SDS011;724;49.910;12.530;2024-03-23T14:33:07;13.90;;;13.20;;
1460;SDS011;724;49.910;12.530;2024-03-23T14:35:34;13.60;;;12.90;;
1460;SDS011;724;49.910;12.530;2024-03-23T14:38:01;13.70;;;13.00;;
1460;SDS011;724;49.910;12.530;2024-03-23T14:40:27;13.70;;;13.00;;
1460;SDS011;724;49.910;12.530;2024-03-23T14:42:57;12.95;;;12.25;;
1460;SDS011;724;49.910;12.530;2024-03-23T14:45:23;12.50;;;11.90;;
1460;SDS011;724;49.910;12.530;2024-03-23T14:47:50;12.40;;;11.80;;
1460;SDS011;724;49.910;12.530;2024-03-23T14:50:20;12.80;;;12.10;;
1460;SDS011;724;49.910;12.530;2024-03-23T14:52:47;13.20;;;12.50;;
1460;SDS011;724;49.910;12.530;2024-03-23T14:55:16;13.32;;;12.63;;
1460;SDS011;724;49.910;12.530;2024-03-23T14:57:43;13.57;;;12.88;;
1460;SDS011;724;49.910;12.530;2024-03-23T15:00:09;14.00;;;13.30;;
1460;SDS011;724;49.910;12.530;2024-03-23T15:02:37;13.60;;;12.90;;
1460;SDS011;724;49.910;12.530;2024-03-23T15:05:03;13.60;;;12.90;;
1460;SDS011;724;49.910;12.530;2024-03-23T15:07:33;13.90;;;13.20;;
1460;SDS011;724;49.910;12.530;2024-03-23T15:09:59;13.80;;;13.10;;
1460;SDS011;724;49.910;12.530;2024-03-23T15:12:26;13.60;;;12.90;;
1460;SDS011;724;49.910;12.530;2024-03-23T15:14:52;13.60;;;12.90;;
1460;SDS011;724;49.910;12.530;2024-03-23T15:17:18;13.40;;;12.70;;
1460;SDS011;724;49.910;12.530;2024-03-23T15:19:44;13.50;;;12.80;;
1460;SDS011;724;49.910;12.530;2024-03-23T15:22:11;12.80;;;12.10;;
1460;SDS011;724;49.910;12.530;2024-03-23T15:24:38;13.10;;;12.40;;
1460;SDS011;724;49.910;12.530;2024-03-23T15:27:05;12.88;;;12.18;;
1460;SDS011;724;49.910;12.530;2024-03-23T15:29:32;13.10;;;12.40;;
1460;SDS011;724;49.910;12.530;2024-03-23T15:31:59;13.20;;;12.50;;
1460;SDS011;724;49.910;12.530;2024-03-23T15:34:25;13.30;;;12.60;;
1460;SDS011;724;49.910;12.530;2024-03-23T15:36:51;13.63;;;12.93;;
1460;SDS011;724;49.910;12.530;2024-03-23T15:39:17;13.77;;;13.07;;
1460;SDS011;724;49.910;12.530;2024-03-23T15:41:46;13.70;;;13.00;;
1460;SDS011;724;49.910;12.530;2024-03-23T15:44:11;13.40;;;12.70;;